Time;durP1;ratioP1;P1;durP2;ratioP2;P2;SDS_P1;SDS_P2;PMS_P1;PMS_P2;Temp;Humidity;BMP_temperature;BMP_pressure;BME280_temperature;BME280_humidity;BME280_pressure;Samples;Min_cycle;Max_cycle;Signal;HPM_P1;HPM_P2
2022/03/19 00:02:07;;;;;;;0.40;0.40;;;10.10;99.90;9.80;104087.00;;;;5077701;28;20197;-70
2022/03/19 00:04:35;;;;;;;1.20;1.10;;;10.20;99.90;9.90;104091.00;;;;5077508;28;20197;-69
2022/03/19 00:07:01;;;;;;;4.17;1.27;;;10.20;99.90;9.80;104079.00;;;;5094509;28;20177;-70
2022/03/19 00:09:27;;;;;;;2.33;1.53;;;10.20;99.90;9.90;104080.00;;;;5097232;28;20727;-70
2022/03/19 00:11:54;;;;;;;1.80;1.70;;;10.20;99.90;10.00;104092.00;;;;5097570;28;20659;-70
2022/03/19 00:14:20;;;;;;;1.57;1.47;;;10.20;99.90;10.10;104053.00;;;;5114966;28;20191;-70
2022/03/19 00:16:46;;;;;;;4.20;2.23;;;10.30;99.90;10.20;104093.00;;;;5114611;28;20180;-69
2022/03/19 00:19:12;;;;;;;3.40;2.23;;;10.30;99.90;9.90;104099.00;;;;5114889;28;20193;-69
2022/03/19 00:21:38;;;;;;;0.90;0.90;;;10.30;99.90;9.80;104080.00;;;;5097835;28;20182;-69
2022/03/19 00:24:05;;;;;;;1.47;1.37;;;10.30;99.90;10.10;104095.00;;;;5097787;28;20265;-69
2022/03/19 00:26:33;;;;;;;0.60;0.60;;;10.30;99.90;10.10;104072.00;;;;5115562;28;20649;-70
2022/03/19 00:28:59;;;;;;;0.93;0.93;;;10.30;99.90;9.60;104034.00;;;;5114726;28;20179;-70
2022/03/19 00:31:28;;;;;;;0.97;0.97;;;10.10;99.90;10.10;104088.00;;;;5115720;28;20291;-69
2022/03/19 00:33:57;;;;;;;1.60;1.50;;;10.20;99.90;10.20;104085.00;;;;5116036;28;20245;-70
2022/03/19 00:36:23;;;;;;;2.03;1.03;;;10.30;99.90;10.10;104088.00;;;;5114491;28;20228;-67
2022/03/19 00:38:51;;;;;;;2.13;1.43;;;10.30;99.90;10.30;104090.00;;;;5097345;28;20184;-67
2022/03/19 00:41:17;;;;;;;0.73;0.73;;;10.40;99.90;10.10;104087.00;;;;5097351;28;20696;-67
2022/03/19 00:43:43;;;;;;;0.63;0.63;;;10.30;99.90;9.70;104094.00;;;;5097120;28;20268;-69
2022/03/19 00:46:11;;;;;;;3.33;2.37;;;10.20;99.90;10.00;104069.00;;;;5114529;28;20267;-69
2022/03/19 00:48:38;;;;;;;0.93;0.93;;;10.20;99.90;10.10;104089.00;;;;5114231;28;20176;-69
2022/03/19 00:51:04;;;;;;;3.00;1.33;;;10.30;99.90;10.30;104088.00;;;;5114217;28;20177;-69
2022/03/19 00:53:29;;;;;;;2.00;1.80;;;10.30;99.90;10.10;104056.00;;;;5114072;28;20168;-69
2022/03/19 00:55:55;;;;;;;3.00;2.07;;;10.30;99.90;9.70;104082.00;;;;5112761;28;20186;-67
2022/03/19 00:58:21;;;;;;;1.77;1.20;;;10.20;99.90;9.80;104084.00;;;;5115088;28;20260;-67
2022/03/19 01:00:47;;;;;;;7.73;2.10;;;10.10;99.90;9.60;104090.00;;;;5113940;28;20257;-67
2022/03/19 01:03:15;;;;;;;1.83;1.73;;;10.10;99.90;10.00;104086.00;;;;5096758;28;20185;-69
2022/03/19 01:05:42;;;;;;;4.30;1.73;;;10.20;99.90;9.60;104086.00;;;;5114156;28;20169;-70
2022/03/19 01:08:09;;;;;;;2.50;2.30;;;10.10;99.90;9.60;104066.00;;;;5113040;28;20618;-70
2022/03/19 01:10:35;;;;;;;1.60;1.50;;;10.00;99.90;9.70;104062.00;;;;5096639;28;20272;-71
2022/03/19 01:13:06;;;;;;;1.13;1.03;;;10.00;99.90;9.70;104072.00;;;;5114888;27;20208;-70
2022/03/19 01:15:34;;;;;;;2.50;1.73;;;10.10;99.90;9.80;104050.00;;;;5096977;28;20184;-69
2022/03/19 01:18:01;;;;;;;1.50;1.20;;;10.10;99.90;9.50;104008.00;;;;5114706;28;20579;-70
2022/03/19 01:20:29;;;;;;;3.00;2.50;;;10.00;99.90;9.40;103998.00;;;;5114885;28;20165;-70
2022/03/19 01:22:57;;;;;;;2.40;1.97;;;9.90;99.90;9.40;104039.00;;;;5097192;28;20275;-70
2022/03/19 01:25:23;;;;;;;4.90;3.17;;;10.00;99.90;9.40;104034.00;;;;5113530;28;20166;-69
2022/03/19 01:27:51;;;;;;;4.87;1.33;;;10.00;99.90;9.50;104031.00;;;;5114693;28;20176;-69
2022/03/19 01:30:19;;;;;;;1.70;1.60;;;10.00;99.90;9.80;104021.00;;;;5096521;28;20180;-70
2022/03/19 01:32:46;;;;;;;0.83;0.83;;;10.00;99.90;10.10;103988.00;;;;5113190;28;20217;-69
2022/03/19 01:35:14;;;;;;;3.87;2.13;;;10.10;99.90;9.50;103986.00;;;;5113212;28;20685;-69
2022/03/19 01:37:40;;;;;;;1.03;1.03;;;10.10;99.90;9.70;104028.00;;;;5113267;28;20714;-70
2022/03/19 01:40:10;;;;;;;5.17;1.70;;;10.10;99.90;9.70;104028.00;;;;5112975;28;20177;-69
2022/03/19 01:42:40;;;;;;;1.17;1.07;;;10.10;99.90;9.50;104022.00;;;;5113544;28;20180;-70
2022/03/19 01:45:14;;;;;;;2.23;1.77;;;10.00;99.90;9.40;104020.00;;;;5113225;28;20211;-69
2022/03/19 01:47:43;;;;;;;1.63;1.53;;;10.00;99.90;9.60;104023.00;;;;5113474;28;20183;-69
2022/03/19 01:50:11;;;;;;;0.97;0.97;;;10.00;99.90;9.70;104017.00;;;;5112787;28;20181;-71
2022/03/19 01:52:41;;;;;;;2.77;1.93;;;10.00;99.90;9.50;104025.00;;;;5113407;28;20212;-70
2022/03/19 01:55:11;;;;;;;2.97;2.50;;;9.90;99.90;9.10;104021.00;;;;5095743;28;20172;-69
2022/03/19 01:57:47;;;;;;;1.30;1.20;;;9.80;99.90;9.30;104014.00;;;;5095984;28;20179;-70
2022/03/19 02:00:22;;;;;;;0.57;0.53;;;9.70;99.90;9.40;104019.00;;;;5112801;28;20184;-70
2022/03/19 02:02:53;;;;;;;1.70;1.60;;;9.80;99.90;9.30;104014.00;;;;5113937;28;20688;-70
2022/03/19 02:05:24;;;;;;;1.40;1.30;;;9.80;99.90;9.40;104026.00;;;;5112648;28;20632;-69
2022/03/19 02:07:51;;;;;;;2.53;1.77;;;9.70;99.90;9.70;104020.00;;;;5112439;28;20251;-70
2022/03/19 02:10:20;;;;;;;1.43;0.93;;;9.80;99.90;9.80;104025.00;;;;5095617;28;20333;-70
2022/03/19 02:12:50;;;;;;;3.93;1.40;;;9.90;99.90;9.60;104013.00;;;;5112826;28;20698;-69
2022/03/19 02:15:16;;;;;;;1.87;1.70;;;9.80;99.90;9.80;104023.00;;;;5112589;28;20192;-69
2022/03/19 02:17:43;;;;;;;0.70;0.70;;;9.80;99.90;9.60;103976.00;;;;5112761;28;20657;-70
2022/03/19 02:20:10;;;;;;;3.43;1.43;;;9.90;99.90;9.60;104016.00;;;;5112495;28;20673;-69
2022/03/19 02:22:37;;;;;;;1.67;1.53;;;9.80;99.90;9.30;104006.00;;;;5095525;28;20676;-69
2022/03/19 02:27:50;;;;;;;6.70;3.93;;;9.80;99.90;9.60;104005.00;;;;5112776;28;20253;-70
2022/03/19 02:30:18;;;;;;;1.37;1.17;;;9.80;99.90;9.20;103989.00;;;;5095378;28;20188;-67
2022/03/19 02:32:49;;;;;;;1.57;1.47;;;9.60;99.90;9.20;103993.00;;;;5113654;28;20212;-67
2022/03/19 02:35:18;;;;;;;1.03;1.03;;;9.60;99.90;9.10;103946.00;;;;5112440;28;20181;-67
2022/03/19 02:37:49;;;;;;;0.60;0.60;;;9.50;99.90;9.10;103984.00;;;;5095324;28;20240;-67
2022/03/19 02:40:18;;;;;;;0.93;0.93;;;9.40;99.90;8.80;103986.00;;;;5112030;28;20568;-68
2022/03/19 02:42:55;;;;;;;0.40;0.40;;;9.40;99.90;8.60;103975.00;;;;5112578;28;20164;-67
2022/03/19 02:45:22;;;;;;;1.97;0.97;;;9.20;99.90;8.30;103968.00;;;;5095468;28;20179;-68
2022/03/19 02:47:57;;;;;;;2.40;2.30;;;9.10;99.90;8.30;103960.00;;;;5095559;28;20211;-67
2022/03/19 02:50:43;;;;;;;0.97;0.97;;;9.00;99.90;8.00;103950.00;;;;5096145;28;20218;-67
2022/03/19 02:53:12;;;;;;;4.33;2.40;;;8.80;99.90;7.90;103948.00;;;;5112178;28;20200;-67
2022/03/19 02:55:42;;;;;;;2.27;2.07;;;8.70;99.90;7.90;103952.00;;;;5095842;28;20191;-68
2022/03/19 02:58:09;;;;;;;0.40;0.40;;;8.60;99.90;8.30;103944.00;;;;5095397;28;20688;-67
2022/03/19 03:00:36;;;;;;;2.00;1.10;;;8.70;99.90;7.70;103945.00;;;;5095202;28;20180;-68
2022/03/19 03:03:04;;;;;;;2.50;1.67;;;8.60;99.90;7.90;103897.00;;;;5095172;28;20253;-68
2022/03/19 03:05:33;;;;;;;1.50;1.40;;;8.60;99.90;7.90;103935.00;;;;5112249;28;20531;-68
2022/03/19 03:07:59;;;;;;;1.93;1.53;;;8.50;99.90;7.90;103892.00;;;;5112449;28;20200;-68
2022/03/19 03:10:26;;;;;;;2.57;2.10;;;8.50;99.90;7.70;103922.00;;;;5112112;28;20219;-68
2022/03/19 03:12:52;;;;;;;1.90;1.80;;;8.40;99.90;7.50;103921.00;;;;5095130;28;20212;-68
2022/03/19 03:15:18;;;;;;;3.10;2.43;;;8.30;99.90;7.70;103875.00;;;;5112159;28;20267;-68
2022/03/19 03:17:46;;;;;;;2.27;0.67;;;8.30;99.90;7.50;103915.00;;;;5095209;28;20633;-67
2022/03/19 03:20:15;;;;;;;0.50;0.50;;;8.20;99.90;7.50;103905.00;;;;5098756;28;20183;-67
2022/03/19 03:22:42;;;;;;;1.00;1.00;;;8.20;99.90;7.70;103907.00;;;;5115932;28;20176;-70
2022/03/19 03:25:10;;;;;;;1.87;1.27;;;8.30;99.90;7.80;103904.00;;;;5116139;28;20183;-70
2022/03/19 03:27:36;;;;;;;0.87;0.87;;;8.20;99.90;8.00;103922.00;;;;5116036;28;20169;-70
2022/03/19 03:30:06;;;;;;;0.50;0.50;;;8.40;99.90;7.30;103865.00;;;;5115829;28;20571;-70
2022/03/19 03:32:35;;;;;;;1.97;1.87;;;8.30;99.90;7.60;103911.00;;;;5115280;28;20226;-71
2022/03/19 03:35:01;;;;;;;2.00;1.03;;;8.10;99.90;7.60;103911.00;;;;5116964;28;20180;-71
2022/03/19 03:37:27;;;;;;;2.00;1.30;;;8.20;99.90;7.60;103922.00;;;;5115591;28;20260;-71
2022/03/19 03:39:52;;;;;;;3.23;3.03;;;8.20;99.90;7.70;103902.00;;;;5098897;28;20212;-71
2022/03/19 03:42:21;;;;;;;5.70;3.30;;;8.20;99.90;7.70;103916.00;;;;5083171;28;20198;-71
2022/03/19 03:44:47;;;;;;;0.90;0.90;;;8.20;99.90;7.50;103905.00;;;;5095660;28;20172;-71
2022/03/19 03:47:13;;;;;;;2.50;2.30;;;8.20;99.90;7.70;103913.00;;;;5095187;28;20172;-70
2022/03/19 03:49:39;;;;;;;0.93;0.93;;;8.20;99.90;7.40;103908.00;;;;5094912;28;20533;-71
2022/03/19 03:52:07;;;;;;;2.20;1.60;;;8.10;99.90;7.40;103914.00;;;;5078145;28;20211;-71
2022/03/19 03:54:33;;;;;;;0.53;0.50;;;8.00;99.90;7.40;103921.00;;;;5095144;28;20165;-71
2022/03/19 03:56:59;;;;;;;1.83;1.73;;;8.10;99.90;7.40;103913.00;;;;5078209;28;20192;-71
2022/03/19 03:59:28;;;;;;;0.83;0.83;;;8.10;99.90;7.60;103903.00;;;;5077802;28;20180;-67
2022/03/19 04:01:54;;;;;;;0.93;0.70;;;8.10;99.90;7.50;103907.00;;;;5094904;28;20181;-67
2022/03/19 04:04:25;;;;;;;2.03;1.07;;;8.10;99.90;7.70;103907.00;;;;5094649;28;20650;-67
2022/03/19 04:06:51;;;;;;;2.03;1.83;;;8.10;99.90;7.30;103916.00;;;;5095729;28;20175;-66
2022/03/19 04:09:17;;;;;;;1.63;1.53;;;8.00;99.90;7.60;103861.00;;;;5077929;28;20179;-67
2022/03/19 04:11:45;;;;;;;2.43;1.80;;;8.10;99.90;7.60;103902.00;;;;5086267;28;20213;-67
2022/03/19 04:14:10;;;;;;;1.00;0.90;;;8.10;99.90;7.20;103904.00;;;;5114951;28;20755;-68
2022/03/19 04:16:42;;;;;;;0.97;0.83;;;8.00;99.90;7.40;103880.00;;;;5114907;28;20246;-67
2022/03/19 04:19:13;;;;;;;1.37;1.27;;;8.00;99.90;7.10;103911.00;;;;5114711;28;20205;-66
2022/03/19 04:21:44;;;;;;;4.97;1.60;;;7.90;99.90;6.80;103862.00;;;;5114858;28;20184;-68
2022/03/19 04:24:16;;;;;;;3.87;3.57;;;7.70;99.90;6.70;103866.00;;;;5114645;28;20180;-68
2022/03/19 04:26:47;;;;;;;1.17;1.13;;;7.70;99.90;6.70;103893.00;;;;5097474;28;20182;-68
2022/03/19 04:29:18;;;;;;;1.03;0.97;;;7.60;99.90;7.00;103911.00;;;;5097521;28;20190;-68
2022/03/19 04:31:44;;;;;;;2.20;2.00;;;7.70;99.90;7.10;103903.00;;;;5097444;28;20322;-69
2022/03/19 04:34:15;;;;;;;6.27;3.50;;;7.90;99.90;6.80;103877.00;;;;5114324;28;20187;-68
2022/03/19 04:36:47;;;;;;;1.30;1.20;;;7.80;99.90;6.90;103911.00;;;;5097504;28;20647;-69
2022/03/19 04:39:21;;;;;;;1.10;1.00;;;7.60;99.90;6.90;103909.00;;;;5114102;28;20183;-69
2022/03/19 04:41:52;;;;;;;1.20;1.20;;;7.70;99.90;7.30;103906.00;;;;5098110;28;20209;-69
2022/03/19 04:44:26;;;;;;;2.40;1.80;;;7.70;99.90;6.80;103897.00;;;;5114588;28;20175;-69
2022/03/19 04:46:58;;;;;;;1.63;1.53;;;7.60;99.90;6.70;103903.00;;;;5114104;28;20523;-69
2022/03/19 04:49:29;;;;;;;1.17;1.07;;;7.60;99.90;6.90;103899.00;;;;5113887;28;20223;-69
2022/03/19 04:51:58;;;;;;;2.00;0.50;;;7.60;99.90;7.00;103858.00;;;;5097332;28;20211;-69
2022/03/19 04:54:30;;;;;;;1.47;1.10;;;7.60;99.90;6.70;103892.00;;;;5113965;28;20625;-68
2022/03/19 04:57:03;;;;;;;5.83;5.33;;;7.60;99.90;6.90;103901.00;;;;5097150;28;20183;-69
2022/03/19 04:59:35;;;;;;;3.47;2.63;;;7.50;99.90;7.30;103898.00;;;;5096970;28;20182;-69
2022/03/19 05:02:03;;;;;;;5.63;2.97;;;7.70;99.90;7.00;103888.00;;;;5096750;28;20321;-69
2022/03/19 05:04:32;;;;;;;2.27;2.07;;;7.70;99.90;7.30;103855.00;;;;5114950;28;20543;-69
2022/03/19 05:07:00;;;;;;;3.33;3.07;;;7.70;99.90;7.20;103894.00;;;;5113705;28;20175;-68
2022/03/19 05:12:13;;;;;;;3.13;2.83;;;7.60;99.90;6.80;103892.00;;;;5104661;28;20215;-69
2022/03/19 05:14:39;;;;;;;0.60;0.60;;;7.60;99.90;6.90;103901.00;;;;5093584;28;20187;-69
2022/03/19 05:17:08;;;;;;;0.87;0.87;;;7.60;99.90;6.90;103884.00;;;;5093556;28;20565;-69
2022/03/19 05:19:39;;;;;;;2.47;1.83;;;7.60;99.90;6.70;103818.00;;;;5076425;28;20183;-69
2022/03/19 05:22:10;;;;;;;1.00;1.00;;;7.50;99.90;6.90;103899.00;;;;5076761;28;20199;-69
2022/03/19 05:24:39;;;;;;;0.93;0.93;;;7.50;99.90;6.70;103893.00;;;;5093136;28;20662;-68
2022/03/19 05:27:10;;;;;;;2.83;1.70;;;7.50;99.90;6.80;103895.00;;;;5076112;28;20189;-68
2022/03/19 05:29:42;;;;;;;1.07;1.07;;;7.50;99.90;6.90;103901.00;;;;5092883;28;20173;-70
2022/03/19 05:32:16;;;;;;;1.07;1.07;;;7.50;99.90;7.00;103875.00;;;;5094180;28;20663;-69
2022/03/19 05:34:57;;;;;;;2.40;1.50;;;7.60;99.90;7.20;103899.00;;;;5075851;28;20228;-69
2022/03/19 05:37:29;;;;;;;4.57;2.80;;;7.60;99.90;7.00;103902.00;;;;5076557;28;20182;-69
2022/03/19 05:39:55;;;;;;;1.63;1.53;;;7.60;99.90;6.70;103889.00;;;;5093176;28;20253;-70
2022/03/19 05:42:21;;;;;;;1.97;1.87;;;7.50;99.90;7.00;103897.00;;;;5084663;28;20177;-69
2022/03/19 05:44:48;;;;;;;1.67;1.57;;;7.60;99.90;7.10;103896.00;;;;5112925;28;20210;-68
2022/03/19 05:47:14;;;;;;;0.40;0.40;;;7.50;99.90;7.00;103895.00;;;;5113258;28;20203;-69
2022/03/19 05:49:43;;;;;;;1.30;1.20;;;7.50;99.90;6.70;103887.00;;;;5095258;28;20194;-69
2022/03/19 05:52:09;;;;;;;4.03;2.00;;;7.40;99.90;6.80;103889.00;;;;5096011;28;20228;-70
2022/03/19 05:54:38;;;;;;;0.80;0.80;;;7.40;99.90;7.20;103897.00;;;;5113058;28;20173;-70
2022/03/19 05:57:07;;;;;;;2.00;1.83;;;7.50;99.90;7.00;103893.00;;;;5113338;27;20189;-69
2022/03/19 05:59:35;;;;;;;1.17;0.80;;;7.60;99.90;7.00;103900.00;;;;5095882;28;20285;-69
2022/03/19 06:02:02;;;;;;;2.23;2.13;;;7.50;99.90;6.80;103893.00;;;;5113039;28;20179;-69
2022/03/19 06:04:28;;;;;;;2.27;1.77;;;7.50;99.90;6.70;103892.00;;;;5112715;28;20175;-69
2022/03/19 06:06:54;;;;;;;0.97;0.97;;;7.40;99.90;6.80;103901.00;;;;5113192;28;20230;-70
2022/03/19 06:09:20;;;;;;;1.53;1.43;;;7.40;99.90;6.90;103900.00;;;;5112517;28;20539;-68
2022/03/19 06:11:46;;;;;;;2.97;2.40;;;7.40;99.90;6.50;103896.00;;;;5109643;27;20198;-69
2022/03/19 06:14:12;;;;;;;1.53;1.43;;;7.30;99.90;6.80;103901.00;;;;5092486;28;20167;-69
2022/03/19 06:16:41;;;;;;;1.97;1.87;;;7.50;99.90;6.70;103902.00;;;;5092474;28;20535;-70
2022/03/19 06:19:07;;;;;;;7.80;3.37;;;7.40;99.90;6.70;103900.00;;;;5092218;28;20234;-69
2022/03/19 06:21:33;;;;;;;1.87;1.77;;;7.40;99.90;7.20;103894.00;;;;5075299;28;20191;-69
2022/03/19 06:23:59;;;;;;;0.70;0.67;;;7.60;99.90;6.50;103896.00;;;;5092303;28;20179;-69
2022/03/19 06:26:30;;;;;;;2.27;2.03;;;7.50;99.90;6.80;103910.00;;;;5092210;28;20641;-69
2022/03/19 06:28:59;;;;;;;5.83;4.47;;;7.50;99.90;6.80;103901.00;;;;5074970;28;20186;-69
2022/03/19 06:31:28;;;;;;;2.80;2.60;;;7.50;99.90;6.80;103904.00;;;;5074868;28;20231;-69
2022/03/19 06:33:54;;;;;;;2.77;2.67;;;7.60;99.90;7.00;103906.00;;;;5092431;28;20259;-69
2022/03/19 06:39:08;;;;;;;0.97;0.93;;;7.80;99.90;7.50;103909.00;;;;5092327;28;20597;-69
2022/03/19 06:41:34;;;;;;;1.90;1.40;;;7.90;99.90;7.60;103817.00;;;;5075021;28;20185;-69
2022/03/19 06:44:08;;;;;;;3.40;1.50;;;8.10;99.90;7.50;103914.00;;;;5091791;28;20182;-70
2022/03/19 06:46:42;;;;;;;2.13;1.47;;;8.20;99.90;7.60;103905.00;;;;5075524;28;20185;-69
2022/03/19 06:49:13;;;;;;;2.47;2.27;;;8.20;99.90;7.90;103916.00;;;;5075476;28;20186;-70
2022/03/19 06:51:44;;;;;;;2.40;2.17;;;8.40;99.90;8.00;103907.00;;;;5091886;28;20207;-69
2022/03/19 06:54:27;;;;;;;3.60;2.47;;;8.50;99.90;7.50;103902.00;;;;5077602;28;20177;-69
2022/03/19 06:57:56;;;;;;;3.00;2.57;;;8.50;99.90;8.20;103915.00;;;;5095938;28;20183;-70
2022/03/19 07:00:29;;;;;;;1.70;1.60;;;8.80;99.90;9.30;103916.00;;;;5096117;28;20547;-70
2022/03/19 07:02:56;;;;;;;8.47;2.87;;;9.50;99.90;8.90;103878.00;;;;5095963;28;20542;-69
2022/03/19 07:05:27;;;;;;;2.30;2.13;;;9.50;99.90;9.90;103941.00;;;;5095866;28;20177;-70
2022/03/19 07:07:58;;;;;;;4.10;2.20;;;10.00;99.90;9.40;103936.00;;;;5095859;28;20686;-70
2022/03/19 07:10:27;;;;;;;2.20;2.10;;;10.00;99.90;9.70;103950.00;;;;5096003;28;20233;-70
2022/03/19 07:12:55;;;;;;;2.27;2.07;;;10.20;99.90;10.00;103950.00;;;;5095619;28;20222;-70
2022/03/19 07:15:29;;;;;;;3.47;1.67;;;10.50;99.90;10.70;103960.00;;;;5078631;28;20186;-70
2022/03/19 07:17:57;;;;;;;3.40;3.20;;;10.90;99.90;10.10;103954.00;;;;5079178;28;20666;-70
2022/03/19 07:20:23;;;;;;;1.83;1.73;;;10.80;99.90;10.10;103970.00;;;;5095584;28;20178;-71
2022/03/19 07:22:58;;;;;;;0.63;0.63;;;11.00;99.90;11.50;103981.00;;;;5078749;28;20178;-70
2022/03/19 07:25:36;;;;;;;1.43;1.33;;;11.40;99.90;10.90;103978.00;;;;5095457;28;20267;-70
2022/03/19 07:28:10;;;;;;;0.70;0.70;;;11.30;99.90;10.10;103982.00;;;;5095089;28;20183;-70
2022/03/19 07:30:36;;;;;;;3.73;3.43;;;11.00;99.90;11.70;103994.00;;;;5095688;28;20196;-70
2022/03/19 07:33:08;;;;;;;2.47;2.27;;;11.50;99.90;11.40;103999.00;;;;5078451;28;20218;-70
2022/03/19 07:35:34;;;;;;;3.07;2.77;;;11.80;99.90;10.80;103990.00;;;;5095285;28;20213;-69
2022/03/19 07:38:05;;;;;;;3.67;3.37;;;11.40;99.90;10.90;103990.00;;;;5078175;28;20210;-70
2022/03/19 07:43:23;;;;;;;3.70;1.37;;;11.30;99.90;11.10;103989.00;;;;5095428;28;20246;-69
2022/03/19 07:45:57;;;;;;;2.53;1.53;;;11.50;99.90;11.40;103993.00;;;;5095224;28;20189;-70
2022/03/19 07:48:28;;;;;;;1.73;1.63;;;11.70;99.90;11.50;103958.00;;;;5078266;28;20199;-70
2022/03/19 07:50:57;;;;;;;1.03;0.77;;;11.70;99.90;11.60;103998.00;;;;5095116;28;20195;-70
2022/03/19 07:53:26;;;;;;;1.93;1.63;;;12.00;99.90;11.90;103993.00;;;;5094829;28;20207;-69
2022/03/19 07:55:57;;;;;;;1.27;1.20;;;12.10;99.90;10.90;103991.00;;;;5094644;28;20564;-68
2022/03/19 07:58:25;;;;;;;1.63;1.53;;;11.70;99.90;11.70;103991.00;;;;5077903;28;20188;-69
2022/03/19 08:00:54;;;;;;;2.33;1.73;;;12.00;99.90;12.10;103999.00;;;;5095539;28;20187;-69
2022/03/19 08:03:20;;;;;;;1.43;1.33;;;12.20;99.90;12.40;104000.00;;;;5096077;28;20178;-69
2022/03/19 08:05:46;;;;;;;3.63;3.23;;;12.30;99.90;12.40;104009.00;;;;5077550;28;20182;-69
2022/03/19 08:08:12;;;;;;;3.30;2.20;;;12.40;99.90;12.50;103984.00;;;;5094759;28;20271;-70
2022/03/19 08:10:39;;;;;;;1.03;1.03;;;12.60;99.90;11.80;104010.00;;;;5077494;28;20289;-70
2022/03/19 08:13:10;;;;;;;6.13;2.30;;;12.20;99.90;11.80;104011.00;;;;5077400;28;20236;-69
2022/03/19 08:15:42;;;;;;;3.63;3.33;;;12.20;99.90;12.50;103982.00;;;;5094418;28;20667;-70
2022/03/19 08:18:10;;;;;;;2.60;1.83;;;12.40;99.90;11.70;104007.00;;;;5078025;28;20190;-70
2022/03/19 08:20:37;;;;;;;1.73;1.63;;;12.10;99.90;12.40;104021.00;;;;5094472;28;20182;-69
2022/03/19 08:23:06;;;;;;;1.87;1.40;;;12.40;99.90;12.10;104010.00;;;;5094789;28;20240;-70
2022/03/19 08:25:32;;;;;;;1.57;1.47;;;12.50;99.90;11.70;104013.00;;;;5094124;28;20522;-69
2022/03/19 08:27:59;;;;;;;19.53;3.00;;;12.30;99.90;12.30;104009.00;;;;5094533;28;20185;-68
2022/03/19 08:30:27;;;;;;;1.97;1.80;;;12.40;99.90;12.40;103985.00;;;;5077504;28;20182;-70
2022/03/19 08:32:53;;;;;;;4.17;3.00;;;12.60;99.90;12.50;104022.00;;;;5094168;28;20244;-71
2022/03/19 08:35:19;;;;;;;2.57;2.37;;;12.70;99.90;12.50;104010.00;;;;5094333;28;20225;-70
2022/03/19 08:37:46;;;;;;;2.97;2.20;;;12.60;99.90;12.60;104042.00;;;;5095637;28;20816;-70
2022/03/19 08:40:15;;;;;;;2.30;2.10;;;12.60;99.90;12.40;104029.00;;;;5093867;28;20181;-70
2022/03/19 08:42:51;;;;;;;6.40;1.37;;;12.60;99.90;12.40;104040.00;;;;5096836;28;20190;-70
2022/03/19 08:45:21;;;;;;;1.67;1.57;;;12.50;99.90;12.40;103995.00;;;;5114358;28;20179;-70
2022/03/19 08:47:51;;;;;;;2.07;1.97;;;12.60;99.90;12.70;104038.00;;;;5114243;28;20542;-69
2022/03/19 08:50:22;;;;;;;3.73;2.00;;;12.80;99.90;12.50;104037.00;;;;5114374;28;20192;-70
2022/03/19 08:52:54;;;;;;;3.70;2.63;;;12.70;99.90;12.70;104041.00;;;;5115115;28;20723;-70
2022/03/19 08:55:20;;;;;;;1.23;1.13;;;12.90;99.90;12.70;104048.00;;;;5113702;28;20187;-70
2022/03/19 08:57:46;;;;;;;8.70;1.77;;;13.00;99.90;12.80;104037.00;;;;5113874;28;20234;-69
2022/03/19 09:00:13;;;;;;;1.10;1.10;;;12.80;99.90;13.20;104052.00;;;;5097259;28;20719;-70
2022/03/19 09:02:39;;;;;;;2.10;1.67;;;13.30;99.90;13.40;104056.00;;;;5114315;28;20162;-69
2022/03/19 09:05:08;;;;;;;1.33;1.17;;;13.40;99.90;13.70;104071.00;;;;5096751;28;20175;-69
2022/03/19 09:07:34;;;;;;;0.90;0.90;;;13.70;99.90;13.60;104073.00;;;;5090665;28;20377;-71
2022/03/19 09:10:06;;;;;;;3.90;1.73;;;13.70;99.90;13.90;104080.00;;;;5101715;28;20181;-70
2022/03/19 09:12:32;;;;;;;1.13;1.03;;;13.70;99.90;13.70;104079.00;;;;5102136;28;20655;-70
2022/03/19 09:15:01;;;;;;;3.63;3.00;;;14.10;99.90;14.00;104093.00;;;;5088800;28;20180;-69
2022/03/19 09:17:27;;;;;;;4.87;3.30;;;14.10;99.90;13.00;104096.00;;;;5103976;28;20186;-69
2022/03/19 09:19:53;;;;;;;1.83;1.63;;;13.60;99.90;13.60;104073.00;;;;5113358;28;20178;-68
2022/03/19 09:22:19;;;;;;;2.87;1.40;;;13.60;99.90;13.60;104084.00;;;;5112314;28;20255;-70
2022/03/19 09:24:45;;;;;;;5.03;2.60;;;13.70;99.90;13.40;104092.00;;;;5114085;28;20175;-69
2022/03/19 09:27:12;;;;;;;1.90;1.57;;;13.70;99.90;13.20;104071.00;;;;5114315;28;20166;-69
2022/03/19 09:29:41;;;;;;;1.90;1.47;;;13.50;99.90;13.90;104067.00;;;;5113369;28;20648;-69
2022/03/19 09:32:12;;;;;;;3.23;1.47;;;13.90;99.90;14.40;103936.00;;;;5112210;28;20218;-68
2022/03/19 09:34:39;;;;;;;1.73;1.27;;;14.20;99.90;14.30;103995.00;;;;5113322;28;20177;-69
2022/03/19 09:37:05;;;;;;;1.93;1.53;;;14.40;99.90;13.50;103989.00;;;;5113109;28;20160;-70
2022/03/19 09:39:36;;;;;;;8.47;3.10;;;14.00;99.90;13.90;103938.00;;;;5096186;28;20193;-69
2022/03/19 09:42:19;;;;;;;2.07;1.20;;;14.00;99.90;13.80;103956.00;;;;5113789;28;20182;-70
2022/03/19 09:44:51;;;;;;;1.23;1.13;;;13.90;99.90;13.70;103973.00;;;;5111693;28;20188;-70
2022/03/19 09:47:17;;;;;;;1.20;1.10;;;13.90;99.90;14.00;103980.00;;;;5093926;28;20182;-70
2022/03/19 09:49:43;;;;;;;4.20;3.07;;;14.10;99.90;13.80;103965.00;;;;5112818;28;20662;-70
2022/03/19 09:52:12;;;;;;;0.73;0.73;;;14.00;99.90;14.30;103971.00;;;;5096041;28;20200;-70
2022/03/19 09:54:42;;;;;;;5.00;1.50;;;14.30;99.90;14.00;103982.00;;;;5102656;28;20509;-68
2022/03/19 09:57:07;;;;;;;2.90;2.20;;;14.40;99.90;14.00;103991.00;;;;5109724;28;20183;-69
2022/03/19 09:59:36;;;;;;;2.40;2.20;;;14.20;99.90;13.70;103988.00;;;;5092496;28;20172;-70
2022/03/19 10:02:07;;;;;;;11.77;3.00;;;14.10;99.90;13.50;103974.00;;;;5093543;28;20211;-69
2022/03/19 10:04:35;;;;;;;1.33;1.10;;;13.90;99.90;13.50;103961.00;;;;5090676;28;20221;-69
2022/03/19 10:09:48;;;;;;;5.63;2.80;;;13.90;99.90;13.70;103910.00;;;;5112969;28;20247;-72
2022/03/19 10:12:22;;;;;;;4.00;2.00;;;13.90;99.90;13.70;103960.00;;;;5112610;28;20219;-72
2022/03/19 10:14:59;;;;;;;4.93;3.23;;;13.80;99.90;13.70;103958.00;;;;5096180;28;20520;-72
2022/03/19 10:17:34;;;;;;;2.33;2.13;;;14.10;99.90;13.70;103912.00;;;;5093450;28;20177;-75
2022/03/19 10:20:12;;;;;;;4.30;2.33;;;14.00;99.90;14.20;103958.00;;;;5094500;28;20313;-68
2022/03/19 10:33:12;;;;;;;1.20;1.10;;;14.00;99.90;14.50;103932.00;;;;5113116;27;1325186;-72
2022/03/19 10:35:41;;;;;;;3.70;2.13;;;14.40;99.90;14.70;103916.00;;;;5113131;28;20186;-71
2022/03/19 10:38:44;;;;;;;1.03;1.00;;;14.70;99.90;14.80;103909.00;;;;5130562;28;20182;-71
2022/03/19 10:41:18;;;;;;;3.40;1.90;;;14.80;99.90;14.20;103882.00;;;;5097086;28;20199;-68
2022/03/19 10:43:45;;;;;;;1.63;1.43;;;14.70;99.90;14.90;103896.00;;;;5126316;28;20176;-69
2022/03/19 10:46:11;;;;;;;4.33;2.00;;;14.80;99.90;14.70;103897.00;;;;5109734;28;20212;-67
2022/03/19 10:48:38;;;;;;;1.77;1.67;;;14.90;99.90;15.00;103883.00;;;;5109114;28;20201;-68
2022/03/19 10:51:12;;;;;;;2.40;2.00;;;15.00;99.90;14.30;103863.00;;;;5126149;28;20663;-67
2022/03/19 10:53:39;;;;;;;2.93;1.63;;;14.90;99.90;14.70;103852.00;;;;5109623;28;20180;-68
2022/03/19 10:56:06;;;;;;;2.07;1.87;;;14.80;99.90;14.40;103875.00;;;;5125968;28;20170;-67
2022/03/19 10:58:33;;;;;;;0.50;0.47;;;14.70;99.90;14.70;103869.00;;;;5108330;28;20200;-71
2022/03/19 11:01:01;;;;;;;4.03;3.00;;;14.70;99.90;15.10;103813.00;;;;5109139;28;20178;-70
2022/03/19 11:03:30;;;;;;;2.00;1.30;;;15.00;99.90;15.60;103850.00;;;;5125463;28;20541;-70
2022/03/19 11:06:10;;;;;;;2.67;1.17;;;15.40;99.90;15.50;103847.00;;;;5107255;28;20192;-70
2022/03/19 11:09:42;;;;;;;8.30;2.67;;;15.60;99.90;15.10;103830.00;;;;5109287;28;20177;-72
2022/03/19 11:12:31;;;;;;;0.50;0.50;;;15.40;99.90;15.30;103822.00;;;;5118558;28;20258;-70
2022/03/19 11:15:00;;;;;;;4.83;1.97;;;15.40;99.90;14.90;103822.00;;;;5110095;28;20196;-71
2022/03/19 11:17:30;;;;;;;3.00;2.27;;;15.30;98.60;15.20;103800.00;;;;5092216;28;20190;-71
2022/03/19 11:20:05;;;;;;;1.57;1.20;;;15.40;97.40;15.00;103811.00;;;;5125897;28;20546;-71
2022/03/19 11:22:46;;;;;;;4.77;1.93;;;15.20;97.80;15.10;103805.00;;;;5108790;28;20228;-72
2022/03/19 11:25:27;;;;;;;3.30;1.90;;;15.30;95.30;14.90;103782.00;;;;5107799;28;20181;-71
2022/03/19 11:28:01;;;;;;;5.23;1.60;;;15.10;94.50;15.00;103798.00;;;;5120768;28;20198;-70
2022/03/19 11:30:34;;;;;;;1.60;1.40;;;15.20;94.80;15.00;103788.00;;;;5111806;28;20554;-70